Lamartine, PA

5:02 AM EDT on September 22, 2014 (GMT -0400)
Du Bois-Jefferson County | Change Station
CLOSE
Current Station
Airport
Location: Du Bois,
Elevation: 1818 ft
Nearby Weather Stations

Elev 1818 ft 41.18 °N, 78.90 °W | Updated 9 minutes ago

Overcast
Overcast
49 °F
Feels Like 49 °F
N
9
Wind Variable Wind from WNW
Gusts 18 mph

Today
High -- | Low -- °F
--% Chance of Precip.
Yesterday
High -- | Low -- °F
Precip. -- in
7:06 AM 7:15 PM
Waning Crescent, 3% visible
Pressure 29.88 in
Visibility 10.0 miles
Clouds Overcast 1300 ft
Dew Point 46 °F
Humidity 90%
Rainfall 0.00 in
Snow Depth Not available.
UV 0 out of 12
Pollen .40 out of 12
Ozone Good
PM2.5 Good
Flu Activity Not available.
METAR KDUJ 220853Z AUTO 29008G16KT 10SM OVC013 09/08 A2989 RMK AO2 SLP117 T00940078 53012 $

More Conditions Fewer Conditions

Pressure 29.88 in
Visibility 10.0 miles
Clouds Overcast 1300 ft
Dew Point 46 °F
Humidity 90%
Rainfall 0.00 in
Snow Depth Not available.
UV 0 out of 12
Pollen .40 out of 12
Ozone Good
PM2.5 Good
Flu Activity Not available.
METAR KDUJ 220853Z AUTO 29008G16KT 10SM OVC013 09/08 A2989 RMK AO2 SLP117 T00940078 53012 $

More Conditions Fewer Conditions

10-Day Weather Forecast

Almanac

Astronomy

Sep. 22, 2014 Rise Set
Actual Time 7:06 AM EDT 7:15 PM EDT
Civil Twilight 6:38 AM EDT 7:43 PM EDT
Nautical Twilight 6:06 AM EDT 8:15 PM EDT
Astronomical Twilight 5:33 AM EDT 8:48 PM EDT
Moon 5:32 AM EDT 6:22 PM EDT
Length of Visible Light 13h 04m
Length of Day
12h 09m
Tomorrow will be 2m 44s shorter.
Waning Crescent, 3% of the Moon is Illuminated
Today
Waning Crescent
Sep 24
New
Oct 1
First Quarter
Oct 8
Full
Oct 15
Last Quarter

Today's Extremes

State Highs State Lows

Community

WunderPhotos

Upload Photos

1,755,402 photos uploaded!

Nearby

Air Quality

  Air Quality AQ Index Pollutant
Yesterday Moderate
PM2.5
Yesterday Good
OZONE
Current Good
PM2.5
Current Good
OZONE
Monday Good
PM2.5
Tuesday Good
PM2.5

Snow Depth

Station Depth Elevation
No new snow has been reported.

Earthquake Activity

City Distance Mag. Time & Date
No recent earthquake activity has been reported nearby.
Minimum magnitude displayed is 2.5.

Coastal Water Temperatures

Place Temperature
No Stations Reporting

Nearby Weather Stations